Time;durP1;ratioP1;P1;durP2;ratioP2;P2;SDS_P1;SDS_P2;PMS_P1;PMS_P2;Temp;Humidity;BMP_temperature;BMP_pressure;BME280_temperature;BME280_humidity;BME280_pressure;Samples;Min_cycle;Max_cycle;Signal;HPM_P1;HPM_P2
2021/07/19 00:00:18;;;;;;;24.50;8.60;;;;;;;21.92;100.00;100053.92;1726309;82;21203;-38
2021/07/19 00:02:45;;;;;;;13.75;7.80;;;;;;;21.92;100.00;100051.78;1709812;82;21538;-38
2021/07/19 00:05:14;;;;;;;20.72;8.08;;;;;;;21.93;100.00;100053.46;1705480;82;22377;-39
2021/07/19 00:07:40;;;;;;;18.55;8.68;;;;;;;21.91;100.00;100049.61;1721276;82;20926;-38
2021/07/19 00:10:10;;;;;;;17.40;9.08;;;;;;;21.89;100.00;100054.16;1732026;82;21134;-39
2021/07/19 00:12:37;;;;;;;18.80;8.43;;;;;;;21.87;100.00;100063.14;1728701;82;20964;-38
2021/07/19 00:15:07;;;;;;;15.48;8.43;;;;;;;21.85;100.00;100060.59;1714037;82;20881;-39
2021/07/19 00:17:35;;;;;;;24.20;9.03;;;;;;;21.82;100.00;100060.33;1722115;82;21427;-39
2021/07/19 00:20:03;;;;;;;21.20;9.20;;;;;;;21.80;100.00;100056.15;1714156;82;21599;-39
2021/07/19 00:22:29;;;;;;;15.03;8.48;;;;;;;21.76;100.00;100054.20;1725212;82;21106;-39
2021/07/19 00:24:56;;;;;;;10.60;7.92;;;;;;;21.74;100.00;100060.05;1725480;82;21541;-39
2021/07/19 00:27:23;;;;;;;19.48;8.23;;;;;;;21.74;100.00;100049.52;1736922;82;21620;-40
2021/07/19 00:29:50;;;;;;;12.35;8.93;;;;;;;21.75;100.00;100039.84;1731129;82;21541;-38
2021/07/19 00:32:17;;;;;;;12.90;9.35;;;;;;;21.74;100.00;100044.25;1690496;83;20923;-39
2021/07/19 00:37:35;;;;;;;13.98;8.90;;;;;;;21.72;99.80;100048.79;1800015;78;22457;-39
2021/07/19 00:40:12;;;;;;;18.12;8.58;;;;;;;21.65;99.40;100050.19;1781692;80;21633;-39
2021/07/19 00:42:40;;;;;;;14.20;8.78;;;;;;;21.61;99.09;100047.39;1764170;80;21037;-38
2021/07/19 00:45:11;;;;;;;16.62;9.33;;;;;;;21.56;98.78;100053.43;1764892;80;21576;-38
2021/07/19 00:47:38;;;;;;;14.75;9.20;;;;;;;21.50;98.71;100046.34;1740195;80;21015;-39
2021/07/19 00:50:08;;;;;;;15.98;9.18;;;;;;;21.45;98.68;100047.15;1721239;81;21010;-38
2021/07/19 00:52:35;;;;;;;10.68;9.20;;;;;;;21.39;98.63;100047.09;1721950;81;20909;-39
2021/07/19 00:55:05;;;;;;;14.38;9.73;;;;;;;21.37;98.44;100049.00;1718456;81;21153;-38
2021/07/19 00:57:32;;;;;;;16.10;9.05;;;;;;;21.36;98.39;100052.58;1662509;83;20960;-38
2021/07/19 00:59:59;;;;;;;18.45;10.20;;;;;;;21.37;98.48;100055.58;1720406;83;20964;-38
2021/07/19 01:02:27;;;;;;;16.20;9.33;;;;;;;21.36;98.41;100051.27;1726737;81;21025;-39
2021/07/19 01:04:54;;;;;;;15.35;9.80;;;;;;;21.35;98.67;100054.84;1679995;83;21043;-38
2021/07/19 01:07:22;;;;;;;12.03;8.75;;;;;;;21.35;98.70;100060.11;1678348;84;21815;-39
2021/07/19 01:09:51;;;;;;;24.02;10.43;;;;;;;21.34;98.80;100055.80;1678588;84;21019;-39
2021/07/19 01:12:18;;;;;;;17.92;9.08;;;;;;;21.33;98.97;100058.06;1696280;83;21000;-39
2021/07/19 01:14:46;;;;;;;17.48;8.95;;;;;;;21.33;99.00;100055.89;1686861;83;20998;-39
2021/07/19 01:17:12;;;;;;;16.42;8.45;;;;;;;21.33;99.56;100057.20;1703804;84;21620;-40
2021/07/19 01:19:39;;;;;;;15.72;9.75;;;;;;;21.36;99.95;100069.69;1670726;85;21592;-39
2021/07/19 01:22:40;;;;;;;20.60;9.25;;;;;;;21.35;100.00;100060.11;1695166;83;21047;-39
2021/07/19 01:25:46;;;;;;;18.60;9.50;;;;;;;21.36;100.00;100067.55;1683022;83;21580;-39
2021/07/19 01:28:48;;;;;;;18.00;9.10;;;;;;;21.36;100.00;100067.55;1690278;84;20960;-40
2021/07/19 01:31:32;;;;;;;19.02;9.53;;;;;;;21.40;100.00;100066.38;1686781;84;20960;-40
2021/07/19 01:34:01;;;;;;;13.40;9.33;;;;;;;21.43;100.00;100067.48;1684671;84;21089;-40
2021/07/19 01:36:30;;;;;;;14.07;9.05;;;;;;;21.45;100.00;100067.35;1682620;83;21549;-40
2021/07/19 01:39:01;;;;;;;18.90;9.55;;;;;;;21.43;100.00;100072.74;1662168;84;21071;-40
2021/07/19 01:41:30;;;;;;;16.90;9.03;;;;;;;21.42;100.00;100071.06;1647318;83;21471;-39
2021/07/19 01:43:57;;;;;;;17.05;9.15;;;;;;;21.43;100.00;100066.16;1667914;84;21332;-40
2021/07/19 01:46:24;;;;;;;15.70;9.53;;;;;;;21.46;100.00;100061.99;1667985;84;21083;-39
2021/07/19 01:48:52;;;;;;;21.23;9.38;;;;;;;21.47;100.00;100064.98;1679088;84;20992;-39
2021/07/19 01:51:19;;;;;;;15.83;9.10;;;;;;;21.48;100.00;100064.53;1667362;84;20992;-39
2021/07/19 01:53:50;;;;;;;12.45;8.78;;;;;;;21.49;100.00;100057.82;1643965;84;21036;-39
2021/07/19 01:56:17;;;;;;;20.10;9.33;;;;;;;21.49;100.00;100067.03;1652546;84;20904;-40
2021/07/19 01:58:44;;;;;;;17.02;8.98;;;;;;;21.48;100.00;100069.30;1682280;84;21095;-39
2021/07/19 02:01:13;;;;;;;20.40;10.03;;;;;;;21.48;100.00;100074.56;1683824;84;21043;-40
2021/07/19 02:03:40;;;;;;;19.73;9.40;;;;;;;21.47;100.00;100073.34;1678482;84;21027;-39
2021/07/19 02:06:07;;;;;;;19.20;9.88;;;;;;;21.46;100.00;100076.93;1687381;82;21628;-40
2021/07/19 02:08:35;;;;;;;15.35;9.78;;;;;;;21.43;100.00;100075.38;1722463;82;20976;-40
2021/07/19 02:11:04;;;;;;;14.00;9.83;;;;;;;21.42;100.00;100078.95;1732781;82;21589;-40
2021/07/19 02:13:33;;;;;;;19.42;9.55;;;;;;;21.41;100.00;100076.42;1722094;82;20996;-40
2021/07/19 02:16:02;;;;;;;21.73;10.00;;;;;;;21.38;100.00;100081.44;1709513;82;21279;-40
2021/07/19 02:18:30;;;;;;;22.73;10.35;;;;;;;21.37;100.00;100079.76;1717609;82;20953;-40
2021/07/19 02:20:59;;;;;;;14.28;9.80;;;;;;;21.36;100.00;100085.48;1716769;82;20960;-40
2021/07/19 02:23:26;;;;;;;21.75;9.83;;;;;;;21.35;100.00;100077.71;1691810;82;21130;-40
2021/07/19 02:26:11;;;;;;;31.15;11.35;;;;;;;21.35;100.00;100088.24;1711894;82;21020;-40
2021/07/19 02:28:39;;;;;;;25.27;10.50;;;;;;;21.34;100.00;100090.48;1718922;82;21047;-40
2021/07/19 02:31:06;;;;;;;38.02;10.78;;;;;;;21.35;100.00;100090.88;1718773;82;21539;-40
2021/07/19 02:33:34;;;;;;;24.75;10.63;;;;;;;21.36;100.00;100085.97;1725489;82;20952;-40
2021/07/19 02:36:05;;;;;;;32.83;10.53;;;;;;;21.37;100.00;100087.16;1696928;82;21769;-40
2021/07/19 02:38:33;;;;;;;31.77;10.53;;;;;;;21.39;100.00;100087.90;1732391;82;22505;-39
2021/07/19 02:41:05;;;;;;;30.32;12.25;;;;;;;21.42;100.00;100094.75;1730310;82;21656;-39
2021/07/19 02:43:32;;;;;;;48.35;12.82;;;;;;;21.45;100.00;100089.27;1727958;82;21513;-39
2021/07/19 02:45:59;;;;;;;46.98;11.80;;;;;;;21.48;100.00;100096.12;1730093;82;21486;-39
2021/07/19 02:48:29;;;;;;;31.95;11.93;;;;;;;21.52;100.00;100094.95;1707975;82;21128;-40
2021/07/19 02:50:58;;;;;;;32.30;11.83;;;;;;;21.57;100.00;100095.46;1714606;82;21008;-39
2021/07/19 02:53:30;;;;;;;51.48;12.93;;;;;;;21.60;100.00;100091.30;1723715;82;20929;-40
2021/07/19 02:55:59;;;;;;;56.30;13.98;;;;;;;21.66;100.00;100096.64;1728010;81;21499;-39
2021/07/19 02:58:26;;;;;;;30.37;12.55;;;;;;;21.71;100.00;100094.97;1701799;83;20988;-39
2021/07/19 03:00:53;;;;;;;25.68;12.98;;;;;;;21.75;100.00;100090.70;1716891;82;21097;-39
2021/07/19 03:03:26;;;;;;;27.95;12.13;;;;;;;21.84;100.00;100094.94;1710046;82;21028;-40
2021/07/19 03:06:09;;;;;;;29.67;11.45;;;;;;;21.91;100.00;100095.71;1705331;82;21271;-39
2021/07/19 03:08:38;;;;;;;21.60;11.15;;;;;;;21.97;100.00;100095.75;1733530;82;21228;-40
2021/07/19 03:11:11;;;;;;;34.40;12.40;;;;;;;22.02;99.97;100090.98;1728904;82;21000;-40
2021/07/19 03:13:38;;;;;;;25.75;11.05;;;;;;;22.08;99.73;100087.08;1731679;82;21022;-40
2021/07/19 03:16:06;;;;;;;25.65;11.18;;;;;;;22.16;99.24;100095.74;1707877;82;21590;-39
2021/07/19 03:18:37;;;;;;;32.40;11.95;;;;;;;22.21;98.89;100092.28;1730962;82;21021;-40
2021/07/19 03:21:04;;;;;;;17.48;11.33;;;;;;;22.24;98.20;100095.55;1655326;84;21028;-40
2021/07/19 03:23:31;;;;;;;20.00;12.75;;;;;;;22.28;97.37;100092.69;1673912;84;21056;-39
2021/07/19 03:26:00;;;;;;;30.55;12.00;;;;;;;22.34;96.70;100090.41;1656271;84;21158;-40
2021/07/19 03:28:26;;;;;;;24.27;11.85;;;;;;;22.39;96.30;100094.03;1674290;84;20968;-39
2021/07/19 03:30:55;;;;;;;19.92;11.57;;;;;;;22.45;95.51;100091.43;1675911;83;20992;-40
2021/07/19 03:33:22;;;;;;;26.50;12.85;;;;;;;22.50;95.18;100095.45;1678356;84;21045;-40
2021/07/19 03:35:48;;;;;;;26.50;13.28;;;;;;;22.52;94.30;100097.95;1686640;84;21028;-40
2021/07/19 03:38:16;;;;;;;30.37;12.40;;;;;;;22.58;94.03;100104.08;1699293;83;21011;-40
2021/07/19 03:40:49;;;;;;;27.25;12.80;;;;;;;22.65;93.86;100108.42;1630387;85;21092;-40
2021/07/19 03:43:17;;;;;;;23.40;14.20;;;;;;;22.68;92.55;100110.36;1682785;83;21034;-40
2021/07/19 03:45:46;;;;;;;28.57;14.00;;;;;;;22.74;91.91;100108.22;1691927;84;20991;-40
2021/07/19 03:48:15;;;;;;;28.50;13.80;;;;;;;22.80;91.08;100109.92;1667783;85;21537;-41
2021/07/19 03:50:41;;;;;;;24.20;14.07;;;;;;;22.86;90.03;100112.58;1639843;84;22358;-39
2021/07/19 03:53:09;;;;;;;18.73;12.73;;;;;;;22.93;89.43;100112.47;1663871;85;21068;-39
2021/07/19 03:55:36;;;;;;;21.68;12.15;;;;;;;23.01;88.49;100116.31;1696626;83;20940;-39
2021/07/19 03:58:03;;;;;;;28.00;13.35;;;;;;;23.15;88.34;100116.56;1698322;84;21043;-40
2021/07/19 04:00:31;;;;;;;26.07;13.60;;;;;;;23.35;88.64;100120.33;1676406;83;20973;-39
2021/07/19 04:03:04;;;;;;;23.62;12.58;;;;;;;23.60;88.01;100115.77;1685444;83;21095;-39
2021/07/19 04:05:30;;;;;;;20.70;11.18;;;;;;;23.87;86.92;100123.31;1691284;84;21015;-39
2021/07/19 04:08:01;;;;;;;20.70;12.47;;;;;;;24.14;85.53;100124.72;1667997;83;21042;-39
2021/07/19 04:10:28;;;;;;;28.05;12.30;;;;;;;24.41;84.15;100126.57;1679214;84;21082;-39
2021/07/19 04:12:55;;;;;;;17.65;11.85;;;;;;;24.66;83.16;100120.92;1687323;83;20939;-39
2021/07/19 04:15:24;;;;;;;28.87;11.93;;;;;;;24.95;82.11;100124.28;1680655;84;21570;-39
2021/07/19 04:17:50;;;;;;;23.25;12.25;;;;;;;25.19;79.98;100127.12;1694864;83;20975;-40
2021/07/19 04:20:20;;;;;;;22.65;12.00;;;;;;;25.40;78.71;100123.61;1680047;84;21022;-40
2021/07/19 04:22:48;;;;;;;21.80;12.58;;;;;;;25.65;77.85;100125.48;1661967;85;21541;-39
2021/07/19 04:25:15;;;;;;;21.12;12.58;;;;;;;25.93;77.17;100123.03;1660824;85;20960;-40
2021/07/19 04:27:45;;;;;;;20.35;11.33;;;;;;;26.18;75.83;100123.52;1689239;83;20951;-40
2021/07/19 04:30:12;;;;;;;19.40;11.78;;;;;;;26.28;74.03;100123.53;1677051;84;21023;-40
2021/07/19 04:32:47;;;;;;;27.00;12.37;;;;;;;26.36;73.12;100113.88;1704775;83;21235;-40
2021/07/19 04:35:20;;;;;;;19.27;11.25;;;;;;;26.50;71.82;100109.96;1686796;84;21007;-40
2021/07/19 04:37:52;;;;;;;16.30;10.65;;;;;;;26.55;71.65;100116.19;1687080;83;20982;-40
2021/07/19 04:40:22;;;;;;;20.35;11.90;;;;;;;26.62;71.57;100115.14;1729813;82;22688;-40
2021/07/19 04:42:49;;;;;;;18.45;11.73;;;;;;;26.59;70.61;100115.42;1740022;82;21182;-40
2021/07/19 04:45:18;;;;;;;22.15;11.20;;;;;;;26.61;71.18;100119.59;1718550;82;20877;-40
2021/07/19 04:47:45;;;;;;;19.60;11.28;;;;;;;26.77;70.24;100123.50;1714182;82;21509;-41
2021/07/19 04:50:16;;;;;;;26.85;12.58;;;;;;;26.75;69.67;100121.48;1718607;82;21543;-41
2021/07/19 04:52:45;;;;;;;20.90;11.70;;;;;;;26.87;69.75;100129.64;1711676;82;21077;-40
2021/07/19 04:55:15;;;;;;;24.45;12.43;;;;;;;27.05;69.38;100123.61;1715791;82;21019;-40
2021/07/19 04:57:42;;;;;;;17.05;10.50;;;;;;;27.30;69.56;100121.30;1721821;82;20925;-40
2021/07/19 05:00:11;;;;;;;18.50;11.12;;;;;;;27.66;69.46;100118.77;1723725;82;21098;-40
2021/07/19 05:02:39;;;;;;;18.85;11.57;;;;;;;27.90;68.19;100122.69;1726110;82;21011;-40
2021/07/19 05:05:09;;;;;;;20.27;10.68;;;;;;;28.09;67.32;100124.41;1723281;82;21112;-40
2021/07/19 05:07:36;;;;;;;18.95;11.10;;;;;;;28.29;66.85;100121.13;1725769;82;20972;-40
2021/07/19 05:10:04;;;;;;;22.00;10.60;;;;;;;28.54;66.53;100112.03;1738372;82;20937;-40
2021/07/19 05:12:31;;;;;;;19.92;11.12;;;;;;;28.76;64.71;100113.86;1733435;82;20960;-40
2021/07/19 05:15:00;;;;;;;20.05;10.72;;;;;;;28.86;64.39;100110.62;1719933;82;21011;-40
2021/07/19 05:17:29;;;;;;;25.85;11.78;;;;;;;28.96;64.45;100114.03;1723638;82;21129;-41
2021/07/19 05:19:55;;;;;;;15.28;10.58;;;;;;;29.14;63.56;100112.29;1725415;82;22270;-40
2021/07/19 05:22:22;;;;;;;24.12;10.80;;;;;;;29.37;63.83;100117.89;1723235;82;21011;-40
2021/07/19 05:24:56;;;;;;;15.40;9.70;;;;;;;29.49;61.71;100110.47;1724385;80;21543;-41
2021/07/19 05:27:22;;;;;;;20.15;10.32;;;;;;;29.64;61.92;100110.69;1718817;82;20948;-41
2021/07/19 05:29:50;;;;;;;16.65;10.48;;;;;;;29.61;59.98;100115.02;1690909;82;21020;-41
2021/07/19 05:32:17;;;;;;;17.40;10.75;;;;;;;29.30;60.92;100112.36;1716934;82;21525;-41
2021/07/19 05:34:43;;;;;;;19.77;10.78;;;;;;;29.20;61.32;100115.16;1734315;82;20976;-40
2021/07/19 05:37:10;;;;;;;15.80;10.28;;;;;;;29.29;61.79;100114.68;1728847;82;21023;-41
2021/07/19 05:39:36;;;;;;;22.02;10.53;;;;;;;29.47;61.29;100121.80;1687649;83;20996;-40
2021/07/19 05:42:03;;;;;;;13.75;10.32;;;;;;;29.57;61.51;100115.01;1710662;82;21135;-40
2021/07/19 05:44:31;;;;;;;18.20;9.53;;;;;;;29.64;61.55;100113.36;1724656;82;20933;-42
2021/07/19 05:47:01;;;;;;;18.52;10.20;;;;;;;29.78;62.26;100110.56;1705384;82;20968;-40
2021/07/19 05:49:28;;;;;;;19.15;10.38;;;;;;;29.88;60.62;100113.09;1712538;82;20929;-40
2021/07/19 05:51:54;;;;;;;22.95;10.08;;;;;;;29.95;60.46;100114.95;1722167;82;20979;-40
2021/07/19 05:54:21;;;;;;;15.28;10.13;;;;;;;30.04;59.78;100110.98;1713113;82;21174;-40
2021/07/19 05:56:48;;;;;;;15.83;10.03;;;;;;;30.04;60.15;100111.83;1719997;82;20877;-40
2021/07/19 05:59:14;;;;;;;16.32;9.58;;;;;;;30.13;60.11;100115.84;1724206;82;21004;-41
2021/07/19 06:01:41;;;;;;;17.52;10.43;;;;;;;30.23;60.82;100112.02;1707070;82;21557;-40
2021/07/19 06:04:08;;;;;;;20.12;10.63;;;;;;;30.44;59.54;100115.18;1716128;82;21644;-40
2021/07/19 06:06:35;;;;;;;18.92;10.63;;;;;;;30.51;58.77;100120.20;1727379;81;21186;-41
2021/07/19 06:09:02;;;;;;;17.92;10.32;;;;;;;30.66;58.76;100111.87;1706691;82;20972;-40
2021/07/19 06:11:29;;;;;;;24.05;10.25;;;;;;;30.79;58.69;100114.02;1714011;82;21087;-42
2021/07/19 06:13:55;;;;;;;14.65;9.93;;;;;;;30.99;58.99;100119.52;1716422;82;21040;-40
2021/07/19 06:16:23;;;;;;;15.23;11.00;;;;;;;31.16;58.45;100110.42;1714320;82;22168;-40
2021/07/19 06:18:50;;;;;;;16.62;10.32;;;;;;;31.17;56.85;100108.09;1709712;82;22278;-40
2021/07/19 06:21:17;;;;;;;17.30;10.70;;;;;;;31.22;56.56;100107.12;1712018;82;21016;-40
2021/07/19 06:23:44;;;;;;;15.93;10.70;;;;;;;31.27;57.57;100109.77;1716828;82;22204;-40
2021/07/19 06:26:11;;;;;;;19.92;10.75;;;;;;;31.44;56.07;100111.87;1714809;82;20997;-40
2021/07/19 06:28:39;;;;;;;16.87;9.98;;;;;;;31.61;55.92;100111.29;1720091;82;21035;-40
2021/07/19 06:31:05;;;;;;;18.10;10.90;;;;;;;31.78;56.05;100106.71;1722443;82;21070;-40
2021/07/19 06:33:31;;;;;;;15.13;9.93;;;;;;;31.91;55.05;100111.48;1714726;81;20965;-41
2021/07/19 06:36:00;;;;;;;22.17;10.18;;;;;;;31.99;55.26;100111.94;1713610;82;20936;-40
2021/07/19 06:38:26;;;;;;;19.55;10.15;;;;;;;32.14;55.39;100106.64;1712380;82;20968;-40
2021/07/19 06:40:52;;;;;;;15.08;10.00;;;;;;;32.25;54.81;100111.59;1725953;82;20945;-40
2021/07/19 06:43:19;;;;;;;14.55;9.78;;;;;;;32.32;55.37;100104.53;1722403;82;20924;-40
2021/07/19 06:45:47;;;;;;;20.40;10.75;;;;;;;32.30;54.38;100112.38;1731994;82;20921;-40
2021/07/19 06:48:15;;;;;;;25.12;11.48;;;;;;;32.11;54.16;100110.01;1726461;82;20916;-40
2021/07/19 06:50:43;;;;;;;21.50;11.15;;;;;;;32.03;54.78;100105.22;1724443;82;20983;-40
2021/07/19 06:53:09;;;;;;;14.58;11.12;;;;;;;32.00;54.21;100107.77;1725410;82;21055;-39
2021/07/19 06:55:36;;;;;;;13.72;10.85;;;;;;;31.84;53.38;100102.02;1729393;82;21105;-40
2021/07/19 06:58:03;;;;;;;23.50;11.10;;;;;;;31.55;53.85;100100.78;1730249;82;20936;-39
2021/07/19 07:00:30;;;;;;;16.45;11.30;;;;;;;31.46;55.18;100105.36;1729836;80;20980;-39
2021/07/19 07:02:56;;;;;;;24.12;11.57;;;;;;;31.63;55.32;100103.44;1714122;82;21019;-40
2021/07/19 07:05:23;;;;;;;20.05;11.97;;;;;;;31.60;54.76;100106.95;1732758;82;20960;-39
2021/07/19 07:07:50;;;;;;;16.27;11.05;;;;;;;31.66;56.08;100104.91;1697884;83;21833;-39
2021/07/19 07:10:17;;;;;;;15.08;10.53;;;;;;;31.82;54.97;100102.18;1720667;82;21530;-39
2021/07/19 07:12:43;;;;;;;16.27;10.68;;;;;;;32.02;54.08;100099.54;1719628;81;20905;-39
2021/07/19 07:15:13;;;;;;;22.13;11.25;;;;;;;32.07;52.13;100099.83;1718152;82;21003;-39
2021/07/19 07:17:40;;;;;;;18.45;11.03;;;;;;;31.90;54.35;100098.63;1725994;81;21509;-39
2021/07/19 07:20:10;;;;;;;25.90;11.60;;;;;;;31.97;54.65;100101.43;1736276;82;21104;-39
2021/07/19 07:22:36;;;;;;;16.67;11.03;;;;;;;32.15;54.91;100102.47;1725415;82;21003;-39
2021/07/19 07:25:05;;;;;;;18.67;11.38;;;;;;;32.33;55.06;100100.00;1723656;82;20976;-39
2021/07/19 07:27:31;;;;;;;18.40;10.58;;;;;;;32.63;54.12;100095.55;1720280;82;21647;-39
2021/07/19 07:29:58;;;;;;;22.02;9.95;;;;;;;32.98;52.78;100101.77;1740612;81;20960;-39
2021/07/19 07:32:24;;;;;;;13.70;10.20;;;;;;;33.21;51.43;100097.63;1721293;82;22699;-39
2021/07/19 07:34:51;;;;;;;20.82;9.68;;;;;;;33.50;48.68;100106.71;1720987;82;21509;-39
2021/07/19 07:37:17;;;;;;;19.55;10.20;;;;;;;33.60;47.98;100099.70;1713993;82;21522;-39
2021/07/19 07:39:45;;;;;;;17.07;9.90;;;;;;;33.66;46.43;100095.42;1727067;81;21024;-39
2021/07/19 07:42:11;;;;;;;23.80;10.30;;;;;;;33.68;46.24;100096.05;1709531;82;20968;-39
2021/07/19 07:44:38;;;;;;;13.48;9.48;;;;;;;33.78;45.99;100105.98;1733491;82;21050;-40
2021/07/19 07:47:04;;;;;;;15.23;10.95;;;;;;;33.87;45.85;100093.78;1705804;82;21004;-39
2021/07/19 07:49:33;;;;;;;20.10;11.33;;;;;;;33.71;46.42;100095.67;1729385;82;20956;-39
2021/07/19 07:51:59;;;;;;;14.47;9.63;;;;;;;33.68;48.19;100097.40;1711052;82;20968;-39
2021/07/19 07:54:27;;;;;;;15.90;9.53;;;;;;;33.87;47.65;100093.78;1724616;82;20893;-40
2021/07/19 07:56:53;;;;;;;11.57;9.43;;;;;;;33.98;47.49;100089.80;1707615;82;21808;-39
2021/07/19 07:59:20;;;;;;;13.90;9.03;;;;;;;34.19;46.79;100097.84;1709815;82;21572;-40
2021/07/19 08:01:46;;;;;;;11.05;7.97;;;;;;;34.26;48.40;100089.86;1721312;82;20909;-40
2021/07/19 08:04:47;;;;;;;12.30;7.42;;;;;;;34.41;46.01;100095.14;1701291;82;21039;-40
2021/07/19 08:07:16;;;;;;;11.48;8.00;;;;;;;34.46;44.32;100090.51;1709363;82;21015;-40
2021/07/19 08:09:43;;;;;;;15.53;8.38;;;;;;;34.71;44.45;100084.72;1721302;82;21211;-40
2021/07/19 08:12:10;;;;;;;15.80;8.90;;;;;;;35.01;44.13;100082.67;1706519;82;20984;-39
2021/07/19 08:14:37;;;;;;;11.18;8.13;;;;;;;35.23;43.61;100079.34;1718810;82;21024;-40
2021/07/19 08:17:03;;;;;;;12.73;8.28;;;;;;;35.23;43.74;100079.34;1706896;82;20988;-40
2021/07/19 08:19:32;;;;;;;11.60;8.18;;;;;;;35.20;44.83;100084.31;1680456;84;21127;-39
2021/07/19 08:22:00;;;;;;;14.10;8.75;;;;;;;35.34;43.55;100084.66;1715794;82;20988;-40
2021/07/19 08:24:27;;;;;;;10.78;8.25;;;;;;;35.14;42.30;100081.90;1722149;82;21088;-40
2021/07/19 08:26:54;;;;;;;11.08;7.97;;;;;;;34.95;45.10;100076.72;1716604;82;21572;-40
2021/07/19 08:29:20;;;;;;;10.80;7.83;;;;;;;34.95;42.67;100075.38;1720113;82;20972;-39
2021/07/19 08:31:47;;;;;;;17.07;8.10;;;;;;;34.78;41.07;100074.34;1719640;82;21490;-40
2021/07/19 08:34:15;;;;;;;7.78;7.08;;;;;;;34.50;42.55;100082.44;1717704;82;21144;-40
2021/07/19 08:36:41;;;;;;;13.05;8.18;;;;;;;34.72;42.68;100085.03;1720930;82;20996;-40
2021/07/19 08:39:09;;;;;;;8.43;7.05;;;;;;;34.82;41.91;100074.78;1704538;83;20999;-40
2021/07/19 08:41:36;;;;;;;9.70;7.60;;;;;;;34.76;41.23;100080.42;1739543;81;20960;-39
2021/07/19 08:44:06;;;;;;;14.00;8.45;;;;;;;34.72;43.54;100079.17;1725843;83;21014;-40
2021/07/19 08:46:35;;;;;;;9.33;8.38;;;;;;;34.80;41.86;100084.91;1699110;83;23592;-40
2021/07/19 08:49:04;;;;;;;11.75;7.97;;;;;;;34.68;42.61;100077.37;1733883;81;20961;-41
2021/07/19 08:51:31;;;;;;;11.85;8.20;;;;;;;34.50;42.43;100083.78;1756020;81;21002;-40
2021/07/19 08:54:00;;;;;;;13.15;7.90;;;;;;;34.79;44.06;100081.90;1754907;81;20952;-40
2021/07/19 08:56:28;;;;;;;16.30;7.78;;;;;;;35.04;40.50;100072.05;1728051;81;21010;-40
2021/07/19 08:58:55;;;;;;;10.48;7.50;;;;;;;35.29;41.25;100072.34;1756222;81;21135;-40
2021/07/19 09:01:23;;;;;;;13.03;8.35;;;;;;;35.47;40.26;100068.27;1756309;81;21014;-40
2021/07/19 09:03:49;;;;;;;10.08;7.35;;;;;;;35.31;40.06;100061.40;1756163;81;21501;-40
2021/07/19 09:06:17;;;;;;;15.20;7.45;;;;;;;35.51;40.26;100063.67;1755918;81;21002;-40
2021/07/19 09:08:52;;;;;;;9.38;7.42;;;;;;;35.84;38.71;100061.25;1756021;81;20935;-40
2021/07/19 09:11:20;;;;;;;14.45;7.15;;;;;;;36.30;39.21;100067.71;1756492;81;21078;-39
2021/07/19 09:14:03;;;;;;;12.40;7.40;;;;;;;36.28;37.87;100062.55;1756128;81;20960;-40
2021/07/19 09:16:45;;;;;;;8.08;7.20;;;;;;;36.05;37.73;100062.44;1728249;81;21027;-40
2021/07/19 09:19:14;;;;;;;14.70;6.80;;;;;;;36.09;36.91;100062.34;1756287;81;20959;-40
2021/07/19 09:21:44;;;;;;;14.33;7.15;;;;;;;35.77;37.19;100060.73;1756043;81;20964;-40
2021/07/19 09:24:20;;;;;;;6.83;6.35;;;;;;;35.79;39.16;100060.50;1756198;81;21136;-40
2021/07/19 09:26:48;;;;;;;7.75;6.85;;;;;;;36.11;37.65;100055.38;1754628;81;20932;-40
2021/07/19 09:29:18;;;;;;;9.10;7.25;;;;;;;36.25;39.54;100050.81;1743175;81;21007;-39
2021/07/19 09:31:56;;;;;;;7.72;7.10;;;;;;;36.42;37.80;100047.70;1726280;83;21478;-39
2021/07/19 09:34:28;;;;;;;8.98;6.53;;;;;;;36.54;39.69;100040.69;1746672;81;20975;-40
2021/07/19 09:37:04;;;;;;;19.15;6.90;;;;;;;36.86;39.56;100039.96;1721779;81;21020;-40
2021/07/19 09:39:49;;;;;;;14.33;6.20;;;;;;;36.62;34.57;100041.80;1748459;81;20964;-39
2021/07/19 09:42:24;;;;;;;8.25;6.55;;;;;;;36.44;37.21;100042.94;1747627;82;21102;-40
2021/07/19 09:44:56;;;;;;;22.37;6.97;;;;;;;36.60;36.13;100040.34;1736145;82;20956;-40
2021/07/19 09:47:42;;;;;;;7.40;6.70;;;;;;;36.75;37.11;100036.89;1718498;82;21521;-39
2021/07/19 09:50:16;;;;;;;18.37;7.60;;;;;;;36.41;34.71;100046.89;1718397;82;21805;-41
2021/07/19 09:52:43;;;;;;;8.90;7.12;;;;;;;36.08;37.00;100036.95;1718173;83;21674;-40
2021/07/19 09:55:16;;;;;;;9.00;6.78;;;;;;;36.34;38.58;100037.97;1691641;83;21627;-40
2021/07/19 09:57:55;;;;;;;7.42;6.78;;;;;;;36.47;37.43;100037.13;1700601;82;21011;-40
2021/07/19 10:00:26;;;;;;;7.58;6.80;;;;;;;36.17;36.31;100030.34;1729250;82;21675;-41
2021/07/19 10:02:52;;;;;;;11.60;6.72;;;;;;;36.15;37.75;100026.19;1730722;82;21932;-40
2021/07/19 10:05:30;;;;;;;26.42;7.35;;;;;;;36.47;37.20;100019.11;1732349;82;21015;-41
2021/07/19 10:08:00;;;;;;;11.10;6.90;;;;;;;36.70;37.40;100021.05;1711421;82;21023;-41
2021/07/19 10:10:41;;;;;;;16.02;6.42;;;;;;;36.83;34.90;100016.97;1728672;81;21023;-40
2021/07/19 11:24:43;;;;;;;9.30;5.78;;;;;;;36.86;33.31;99973.41;1847232;76;22790;-40
2021/07/19 11:27:11;;;;;;;6.25;5.50;;;;;;;36.71;32.83;99979.07;1820491;78;20963;-39
2021/07/19 11:29:39;;;;;;;6.72;5.97;;;;;;;36.53;32.68;99974.38;1822783;78;21424;-40
2021/07/19 11:32:18;;;;;;;10.30;6.72;;;;;;;36.60;33.41;99975.17;1790474;78;20916;-40
2021/07/19 11:34:47;;;;;;;8.70;6.15;;;;;;;36.52;32.05;99972.72;1824265;78;21539;-40
2021/07/19 11:37:17;;;;;;;8.43;6.03;;;;;;;36.51;32.47;99976.42;1824800;78;20912;-42
2021/07/19 11:39:51;;;;;;;9.85;6.70;;;;;;;36.35;33.41;99978.52;1823430;78;21534;-41
2021/07/19 11:42:40;;;;;;;10.48;7.10;;;;;;;35.96;33.67;99984.22;1820556;77;21074;-39
2021/07/19 11:45:09;;;;;;;10.03;6.42;;;;;;;35.69;35.01;99984.21;1780131;79;20976;-41
2021/07/19 11:47:47;;;;;;;11.93;7.53;;;;;;;35.65;35.15;99984.31;1814230;78;20920;-41
2021/07/19 11:50:18;;;;;;;25.70;7.58;;;;;;;35.84;34.75;99990.73;1813706;78;20931;-41
2021/07/19 11:52:46;;;;;;;15.55;6.37;;;;;;;35.81;34.85;99987.12;1812236;78;20920;-41
2021/07/19 11:55:17;;;;;;;13.20;6.33;;;;;;;35.86;35.67;99993.23;1809730;78;21189;-41
2021/07/19 11:57:50;;;;;;;10.40;6.65;;;;;;;35.70;35.88;99993.94;1808427;78;21449;-41
2021/07/19 12:00:38;;;;;;;16.32;6.65;;;;;;;35.79;35.36;99993.23;1812954;78;20912;-42
2021/07/19 12:03:07;;;;;;;11.55;6.42;;;;;;;35.80;36.69;99994.37;1801847;78;21026;-40
2021/07/19 12:05:34;;;;;;;11.50;6.90;;;;;;;35.79;36.13;99997.27;1806919;78;21559;-40
2021/07/19 12:08:06;;;;;;;17.95;7.10;;;;;;;36.05;35.56;99992.45;1810560;78;21950;-41
2021/07/19 12:10:35;;;;;;;11.28;5.90;;;;;;;36.15;34.12;99989.84;1810573;78;20986;-41
2021/07/19 12:13:15;;;;;;;16.23;6.28;;;;;;;36.15;36.47;99987.14;1785739;80;21017;-41
2021/07/19 12:15:52;;;;;;;34.58;7.20;;;;;;;36.23;36.95;99984.22;1802304;77;21507;-42
2021/07/19 12:18:37;;;;;;;49.30;8.78;;;;;;;36.52;36.08;99987.53;1824480;78;20971;-41
2021/07/19 12:21:10;;;;;;;16.62;6.50;;;;;;;36.57;35.74;99985.53;1824697;78;21581;-43
2021/07/19 12:23:50;;;;;;;10.75;6.70;;;;;;;36.60;36.51;99984.59;1798576;78;20932;-42
2021/07/19 12:26:37;;;;;;;15.70;7.10;;;;;;;36.12;36.38;99995.11;1781408;79;21580;-43
2021/07/19 12:29:10;;;;;;;16.87;7.08;;;;;;;35.58;38.86;99987.53;1781260;80;21014;-42
2021/07/19 12:31:40;;;;;;;33.90;7.55;;;;;;;35.50;37.64;99978.59;1781508;80;20949;-40
2021/07/19 12:34:13;;;;;;;13.88;6.80;;;;;;;35.45;38.72;99975.66;1769890;80;21157;-41
2021/07/19 12:36:42;;;;;;;17.75;6.60;;;;;;;35.56;38.87;99974.80;1722779;80;21545;-42
2021/07/19 12:39:12;;;;;;;10.72;6.37;;;;;;;35.48;37.74;99976.60;1721683;81;20975;-40